Time;durP1;ratioP1;P1;durP2;ratioP2;P2;SDS_P1;SDS_P2;PMS_P1;PMS_P2;Temp;Humidity;BMP_temperature;BMP_pressure;BME280_temperature;BME280_humidity;BME280_pressure;Samples;Min_cycle;Max_cycle;Signal;HPM_P1;HPM_P2
2022/07/20 00:01:31;;;;;;;6.82;1.90;;;;;;;21.11;45.11;98548.47;4502950;31;20128;-79
2022/07/20 00:03:58;;;;;;;7.57;1.75;;;;;;;21.16;44.81;98559.44;4503167;31;20148;-79
2022/07/20 00:06:25;;;;;;;3.12;1.67;;;;;;;20.58;45.83;98549.00;4503333;31;20110;-80
2022/07/20 00:11:38;;;;;;;4.20;1.75;;;;;;;20.20;48.19;98538.72;4503184;31;20153;-80
2022/07/20 00:14:05;;;;;;;4.78;1.70;;;;;;;20.22;48.33;98542.09;4503042;31;20112;-79
2022/07/20 00:16:34;;;;;;;4.85;1.58;;;;;;;19.90;49.44;98547.91;4502673;31;20088;-79
2022/07/20 00:19:01;;;;;;;5.53;1.80;;;;;;;19.86;49.53;98543.00;4501971;31;20080;-79
2022/07/20 00:21:28;;;;;;;6.37;2.17;;;;;;;20.06;48.97;98547.63;4503176;31;20163;-80
2022/07/20 00:23:55;;;;;;;6.43;1.62;;;;;;;20.32;48.19;98540.47;4502467;31;20107;-79
2022/07/20 00:26:22;;;;;;;8.32;2.25;;;;;;;20.33;48.54;98538.69;4503106;31;20091;-80
2022/07/20 00:28:52;;;;;;;6.15;1.80;;;;;;;20.10;49.04;98537.78;4502914;31;20505;-80
2022/07/20 00:31:20;;;;;;;6.10;1.90;;;;;;;19.97;49.41;98527.34;4502637;31;20107;-79
2022/07/20 00:33:48;;;;;;;7.65;1.87;;;;;;;20.18;49.18;98525.75;4502811;31;20151;-80
2022/07/20 00:36:17;;;;;;;7.30;1.50;;;;;;;19.83;49.83;98533.59;4502973;31;20186;-80
2022/07/20 00:38:44;;;;;;;7.25;1.50;;;;;;;20.09;49.21;98526.44;4502075;31;20079;-79
2022/07/20 00:41:12;;;;;;;3.00;1.70;;;;;;;20.13;48.95;98529.69;4501881;31;20442;-80
2022/07/20 00:43:56;;;;;;;6.95;1.75;;;;;;;20.27;48.60;98532.09;4502458;31;20402;-79
2022/07/20 00:46:24;;;;;;;3.87;1.80;;;;;;;20.09;48.84;98528.22;4502864;31;20118;-80
2022/07/20 00:48:51;;;;;;;4.97;1.70;;;;;;;20.26;48.68;98530.44;4502776;31;20106;-80
2022/07/20 00:51:19;;;;;;;7.35;2.15;;;;;;;20.23;48.72;98530.66;4502498;31;20096;-80
2022/07/20 00:53:47;;;;;;;7.25;1.70;;;;;;;20.13;49.14;98527.06;4502555;31;20159;-80
2022/07/20 00:56:16;;;;;;;5.55;1.60;;;;;;;20.11;49.36;98523.72;4502756;31;20099;-80
2022/07/20 00:58:43;;;;;;;6.80;1.50;;;;;;;19.96;49.91;98537.94;4502346;31;20127;-79
2022/07/20 01:01:11;;;;;;;2.90;1.67;;;;;;;19.91;49.78;98535.66;4502629;31;20157;-79
2022/07/20 01:03:38;;;;;;;5.95;1.98;;;;;;;19.90;49.85;98529.59;4502407;31;20115;-79
2022/07/20 01:06:05;;;;;;;8.00;1.60;;;;;;;19.50;51.00;98533.38;4500927;31;20084;-80
2022/07/20 01:08:33;;;;;;;2.37;1.37;;;;;;;19.90;50.00;98542.69;4501323;31;20088;-80
2022/07/20 01:11:01;;;;;;;5.07;1.40;;;;;;;19.80;49.66;98538.22;4502483;31;20577;-80
2022/07/20 01:13:28;;;;;;;4.53;1.70;;;;;;;20.17;48.97;98533.72;4501961;31;20177;-79
2022/07/20 01:15:56;;;;;;;8.43;1.58;;;;;;;19.78;49.91;98535.72;4502406;31;20083;-79
2022/07/20 01:18:23;;;;;;;3.72;1.60;;;;;;;19.96;49.75;98543.16;4502300;31;20114;-79
2022/07/20 01:20:50;;;;;;;3.87;1.40;;;;;;;20.25;48.47;98538.41;4502043;31;20140;-80
2022/07/20 01:23:18;;;;;;;4.80;1.60;;;;;;;20.16;48.78;98537.31;4502080;31;20166;-80
2022/07/20 01:25:45;;;;;;;4.25;1.55;;;;;;;20.21;48.61;98543.88;4501951;31;20099;-79
2022/07/20 01:28:13;;;;;;;3.70;1.55;;;;;;;20.38;49.05;98540.00;4502146;31;20120;-80
2022/07/20 01:30:41;;;;;;;3.22;1.50;;;;;;;20.19;49.09;98544.91;4502061;31;20104;-80
2022/07/20 01:33:08;;;;;;;4.87;1.50;;;;;;;20.14;49.33;98533.97;4501652;31;20143;-79
2022/07/20 01:35:35;;;;;;;3.30;1.23;;;;;;;20.07;49.06;98541.44;4502011;31;20103;-80
2022/07/20 01:38:02;;;;;;;5.47;1.48;;;;;;;19.74;49.57;98530.81;4500852;31;20197;-80
2022/07/20 01:40:29;;;;;;;4.43;1.50;;;;;;;19.76;49.52;98540.22;4501714;31;20586;-80
2022/07/20 01:42:56;;;;;;;4.65;1.85;;;;;;;19.67;49.61;98527.78;4501969;31;20148;-80
2022/07/20 01:45:23;;;;;;;6.80;1.70;;;;;;;19.60;49.87;98527.41;4501820;31;20105;-79
2022/07/20 01:47:50;;;;;;;4.68;1.62;;;;;;;19.60;49.82;98524.78;4501496;31;20088;-80
2022/07/20 01:50:17;;;;;;;4.35;1.70;;;;;;;19.10;51.39;98522.25;4501865;31;20138;-79
2022/07/20 01:52:44;;;;;;;5.40;1.60;;;;;;;19.81;49.49;98522.41;4504032;31;20127;-79
2022/07/20 01:55:11;;;;;;;5.10;1.52;;;;;;;19.86;49.22;98524.66;4503601;31;20087;-79
2022/07/20 01:57:38;;;;;;;7.28;1.95;;;;;;;19.84;49.05;98522.16;4504094;31;20102;-79
2022/07/20 02:00:07;;;;;;;6.28;1.48;;;;;;;19.66;50.07;98520.88;4504072;31;20176;-80
2022/07/20 02:02:34;;;;;;;3.42;1.62;;;;;;;19.66;50.24;98533.97;4503769;31;20163;-79
2022/07/20 02:05:01;;;;;;;3.83;1.60;;;;;;;19.97;50.12;98532.56;4504071;31;20154;-79
2022/07/20 02:07:28;;;;;;;4.40;1.70;;;;;;;19.95;49.60;98526.62;4504032;31;20099;-80
2022/07/20 02:09:55;;;;;;;5.78;1.73;;;;;;;19.92;49.60;98526.84;4503735;31;20159;-80
2022/07/20 02:12:22;;;;;;;3.15;1.60;;;;;;;20.01;50.00;98526.19;4503979;31;20114;-80
2022/07/20 02:14:49;;;;;;;5.87;1.80;;;;;;;19.67;51.01;98521.72;4503585;31;20150;-79
2022/07/20 02:17:16;;;;;;;3.50;1.55;;;;;;;19.72;51.46;98525.69;4504058;31;20669;-80
2022/07/20 02:19:43;;;;;;;5.30;1.90;;;;;;;19.51;51.93;98516.72;4503841;31;20227;-80
2022/07/20 02:22:11;;;;;;;5.35;1.73;;;;;;;19.14;53.45;98521.97;4503638;31;20084;-79
2022/07/20 02:24:38;;;;;;;6.35;1.80;;;;;;;18.97;53.80;98528.34;4503708;31;20425;-80
2022/07/20 02:27:05;;;;;;;4.72;1.80;;;;;;;19.44;52.11;98533.78;4503854;31;20092;-80
2022/07/20 02:29:32;;;;;;;6.62;1.73;;;;;;;19.39;52.48;98528.06;4503550;31;20152;-79
2022/07/20 02:31:59;;;;;;;2.92;1.70;;;;;;;18.89;53.64;98521.97;4503874;31;20104;-79
2022/07/20 02:34:26;;;;;;;4.20;1.90;;;;;;;19.27;52.05;98525.38;4503679;31;20080;-79
2022/07/20 02:36:53;;;;;;;5.50;1.87;;;;;;;19.14;52.99;98527.19;4503575;31;20101;-79
2022/07/20 02:39:20;;;;;;;8.98;2.10;;;;;;;19.25;52.40;98535.13;4503767;31;20148;-79
2022/07/20 02:41:47;;;;;;;4.47;1.73;;;;;;;19.20;52.54;98524.13;4503822;31;20155;-80
2022/07/20 02:44:14;;;;;;;3.03;1.60;;;;;;;19.15;52.31;98531.47;4503217;31;20180;-80
2022/07/20 02:46:41;;;;;;;3.67;1.77;;;;;;;19.06;52.41;98524.28;4503811;31;20247;-80
2022/07/20 02:49:08;;;;;;;6.45;1.60;;;;;;;19.24;51.77;98529.97;4503714;31;20572;-79
2022/07/20 02:51:35;;;;;;;7.35;1.70;;;;;;;19.28;51.98;98528.81;4503403;31;20147;-79
2022/07/20 02:54:02;;;;;;;5.45;1.70;;;;;;;19.15;52.55;98528.03;4503522;31;20159;-79
2022/07/20 02:56:29;;;;;;;4.35;1.67;;;;;;;19.06;53.15;98522.50;4503718;31;20080;-79
2022/07/20 02:58:56;;;;;;;8.13;1.80;;;;;;;19.18;53.30;98527.81;4503429;31;20139;-79
2022/07/20 03:01:23;;;;;;;4.72;1.62;;;;;;;19.28;52.41;98532.28;4503668;31;20182;-79
2022/07/20 03:03:50;;;;;;;3.75;1.60;;;;;;;19.24;52.57;98522.94;4502470;31;20087;-79
2022/07/20 03:06:17;;;;;;;7.62;1.80;;;;;;;19.26;52.54;98531.56;4503694;31;20144;-79
2022/07/20 03:08:44;;;;;;;5.65;1.75;;;;;;;19.19;52.93;98532.91;4503474;31;20461;-80
2022/07/20 03:11:11;;;;;;;6.00;2.00;;;;;;;19.20;53.07;98539.00;4503307;31;20087;-79
2022/07/20 03:13:38;;;;;;;6.72;1.80;;;;;;;19.02;53.40;98539.31;4503522;31;20241;-80
2022/07/20 03:16:05;;;;;;;8.73;1.80;;;;;;;19.17;53.19;98536.59;4503517;31;20088;-79
2022/07/20 03:18:32;;;;;;;7.62;2.00;;;;;;;19.01;53.44;98536.81;4503235;31;20096;-79
2022/07/20 03:20:59;;;;;;;5.32;1.92;;;;;;;19.08;53.42;98536.28;4503573;31;20115;-79
2022/07/20 03:23:26;;;;;;;6.90;1.70;;;;;;;19.22;53.27;98537.94;4503319;31;20155;-79
2022/07/20 03:25:53;;;;;;;6.57;2.10;;;;;;;19.03;54.17;98537.53;4503095;31;20084;-80
2022/07/20 03:28:20;;;;;;;3.40;1.60;;;;;;;19.56;52.27;98538.19;4502968;31;20088;-80
2022/07/20 03:30:47;;;;;;;10.15;2.00;;;;;;;19.75;51.75;98538.53;4502038;31;20112;-79
2022/07/20 03:33:14;;;;;;;4.70;1.70;;;;;;;19.59;52.67;98541.44;4501865;31;20087;-79
2022/07/20 03:35:41;;;;;;;5.18;1.67;;;;;;;19.49;52.81;98545.63;4503341;31;20557;-79
2022/07/20 03:38:08;;;;;;;3.55;1.70;;;;;;;19.25;53.90;98545.59;4503438;31;20451;-79
2022/07/20 03:40:35;;;;;;;3.22;1.50;;;;;;;19.44;53.30;98550.34;4503114;31;20104;-80
2022/07/20 03:43:02;;;;;;;6.70;1.98;;;;;;;19.61;52.65;98547.41;4503387;31;20151;-80
2022/07/20 03:45:29;;;;;;;7.55;1.87;;;;;;;19.82;52.27;98550.25;4503345;31;20088;-80
2022/07/20 03:47:56;;;;;;;4.32;1.77;;;;;;;19.74;52.06;98552.56;4502937;31;20501;-80
2022/07/20 03:50:23;;;;;;;6.95;1.80;;;;;;;19.81;51.85;98559.06;4503385;31;20481;-80
2022/07/20 03:52:51;;;;;;;7.90;2.00;;;;;;;19.96;50.99;98556.25;4503205;31;20139;-80
2022/07/20 03:55:18;;;;;;;7.12;1.75;;;;;;;19.85;51.03;98555.25;4501199;31;20227;-80
2022/07/20 03:57:45;;;;;;;4.25;2.20;;;;;;;20.07;50.51;98551.06;4503272;31;20092;-80
2022/07/20 04:00:13;;;;;;;6.68;1.60;;;;;;;20.45;49.54;98556.97;4503016;31;20151;-80
2022/07/20 04:02:39;;;;;;;2.97;1.70;;;;;;;20.92;48.39;98562.16;4503297;31;20174;-80
2022/07/20 04:05:08;;;;;;;5.30;1.50;;;;;;;21.26;47.46;98560.41;4503117;31;20109;-80
2022/07/20 04:07:35;;;;;;;3.58;1.50;;;;;;;21.73;45.95;98559.28;4502899;31;20150;-80
2022/07/20 04:10:03;;;;;;;4.10;1.70;;;;;;;22.26;44.61;98562.00;4503267;31;20096;-80
2022/07/20 04:12:30;;;;;;;4.78;1.60;;;;;;;22.79;43.22;98567.22;4502967;31;20179;-80
2022/07/20 04:14:57;;;;;;;4.28;1.70;;;;;;;23.35;42.25;98567.63;4502450;31;20147;-80
2022/07/20 04:17:24;;;;;;;3.72;1.60;;;;;;;24.06;40.47;98574.63;4502938;31;20152;-80
2022/07/20 04:19:52;;;;;;;4.65;1.55;;;;;;;24.69;39.13;98575.87;4502640;31;20134;-80
2022/07/20 04:22:19;;;;;;;10.50;2.00;;;;;;;25.38;38.00;98578.19;4502588;31;20493;-80
2022/07/20 04:24:46;;;;;;;3.80;1.65;;;;;;;26.27;36.85;98576.69;4502815;31;20101;-80
2022/07/20 04:27:13;;;;;;;11.82;2.00;;;;;;;26.60;37.11;98568.06;4502989;31;20156;-80
2022/07/20 04:29:40;;;;;;;8.45;1.70;;;;;;;27.03;35.95;98577.81;4502710;31;20139;-80
2022/07/20 04:32:07;;;;;;;7.53;1.50;;;;;;;26.96;35.47;98575.91;4503006;31;20098;-80
2022/07/20 04:34:34;;;;;;;3.92;1.50;;;;;;;27.23;34.69;98570.47;4502790;31;20098;-80
2022/07/20 04:37:06;;;;;;;15.93;5.93;;;;;;;27.40;34.38;98571.34;4502603;31;20107;-80
2022/07/20 04:39:33;;;;;;;7.45;2.92;;;;;;;27.57;33.46;98570.44;4502970;31;20543;-80
2022/07/20 04:42:00;;;;;;;14.70;1.60;;;;;;;28.06;32.79;98573.22;4502850;31;20100;-80
2022/07/20 04:44:28;;;;;;;4.40;1.65;;;;;;;28.50;32.27;98579.12;4502469;31;20093;-80
2022/07/20 04:46:55;;;;;;;5.05;1.42;;;;;;;28.87;31.17;98583.03;4502837;31;20442;-80
2022/07/20 04:49:22;;;;;;;7.25;1.50;;;;;;;29.38;30.48;98580.94;4502410;31;20099;-80
2022/07/20 04:51:49;;;;;;;4.32;1.40;;;;;;;29.96;29.53;98593.81;4502774;31;20118;-80
2022/07/20 04:54:18;;;;;;;7.40;1.75;;;;;;;30.46;28.89;98586.34;4502548;31;20204;-81
2022/07/20 04:56:46;;;;;;;4.25;1.70;;;;;;;30.98;28.33;98594.41;4502334;31;20108;-81
2022/07/20 04:59:13;;;;;;;4.40;1.98;;;;;;;31.23;27.67;98586.97;4502606;31;20118;-81
2022/07/20 05:01:40;;;;;;;5.32;2.17;;;;;;;31.43;27.01;98595.25;4502661;31;20151;-81
2022/07/20 05:04:09;;;;;;;3.83;1.50;;;;;;;31.00;28.07;98591.53;4502167;31;20453;-81
2022/07/20 05:06:36;;;;;;;6.05;1.40;;;;;;;30.89;28.42;98597.31;4502552;31;20108;-81
2022/07/20 05:09:06;;;;;;;5.18;1.70;;;;;;;31.13;28.28;98602.38;4502417;31;20155;-81
2022/07/20 05:11:34;;;;;;;8.02;1.50;;;;;;;31.59;27.77;98610.25;4502108;31;20102;-81
2022/07/20 05:14:01;;;;;;;5.65;1.70;;;;;;;33.21;25.89;98612.25;4502246;31;20114;-81
2022/07/20 05:16:28;;;;;;;4.68;1.50;;;;;;;34.30;24.59;98612.31;4502333;31;20112;-81
2022/07/20 05:18:55;;;;;;;6.78;1.60;;;;;;;35.47;23.40;98616.25;4501934;31;20115;-81
2022/07/20 05:21:22;;;;;;;4.55;1.52;;;;;;;36.27;21.87;98611.38;4502397;31;20139;-81
2022/07/20 05:23:50;;;;;;;5.85;1.65;;;;;;;37.27;21.09;98613.00;4502070;31;20128;-81
2022/07/20 05:26:17;;;;;;;3.78;1.60;;;;;;;37.68;20.93;98621.50;4502787;31;20136;-81
2022/07/20 05:28:44;;;;;;;9.32;1.67;;;;;;;38.28;20.71;98618.84;4504348;31;20143;-81
2022/07/20 05:31:15;;;;;;;5.18;1.55;;;;;;;38.84;19.78;98614.91;4504115;31;20561;-81
2022/07/20 05:33:42;;;;;;;4.80;1.45;;;;;;;39.40;19.47;98616.16;4504119;31;20080;-82
2022/07/20 05:36:10;;;;;;;4.82;1.70;;;;;;;39.81;18.55;98618.69;4504148;31;20160;-81
2022/07/20 05:38:37;;;;;;;6.47;1.45;;;;;;;39.92;18.26;98620.50;4503724;31;20487;-81
2022/07/20 05:41:06;;;;;;;4.70;1.55;;;;;;;40.05;18.18;98615.91;4504308;31;20091;-79
2022/07/20 05:43:33;;;;;;;5.12;1.60;;;;;;;40.39;17.86;98617.59;4504132;31;20278;-80
2022/07/20 05:46:00;;;;;;;4.00;1.45;;;;;;;41.02;17.39;98616.47;4503801;31;20088;-80
2022/07/20 05:48:27;;;;;;;3.97;1.70;;;;;;;40.66;17.26;98619.69;4504061;31;20116;-80
2022/07/20 05:50:54;;;;;;;3.40;1.30;;;;;;;39.70;17.09;98610.62;4504196;31;20096;-78
2022/07/20 05:53:21;;;;;;;3.85;1.30;;;;;;;39.16;17.42;98620.78;4503459;31;20388;-79
2022/07/20 05:55:48;;;;;;;4.75;1.30;;;;;;;38.25;18.24;98614.75;4504060;31;20096;-79
2022/07/20 05:58:15;;;;;;;7.30;3.20;;;;;;;38.48;18.02;98622.88;4503988;31;20160;-79
2022/07/20 06:00:42;;;;;;;5.35;1.35;;;;;;;38.71;17.77;98616.78;4503429;31;20088;-79
2022/07/20 06:03:09;;;;;;;3.05;1.50;;;;;;;38.45;17.51;98615.28;4504102;31;20442;-79
2022/07/20 06:05:36;;;;;;;3.12;1.58;;;;;;;37.61;17.98;98610.78;4503981;31;20160;-77
2022/07/20 06:08:03;;;;;;;4.60;1.50;;;;;;;37.35;17.97;98612.75;4503561;31;20113;-77
2022/07/20 06:10:32;;;;;;;3.03;1.30;;;;;;;37.35;18.12;98618.12;4504026;31;20159;-76
2022/07/20 06:13:00;;;;;;;3.67;1.30;;;;;;;37.88;17.54;98609.44;4503829;31;20076;-76
2022/07/20 06:15:34;;;;;;;3.20;1.42;;;;;;;37.90;17.43;98618.12;4503172;31;20088;-77
2022/07/20 06:18:02;;;;;;;5.80;1.35;;;;;;;38.00;17.29;98625.66;4503839;31;20179;-77
2022/07/20 06:20:29;;;;;;;2.58;1.25;;;;;;;37.78;17.79;98614.56;4503653;31;20083;-76
2022/07/20 06:22:58;;;;;;;5.28;1.50;;;;;;;36.93;17.93;98617.09;4503911;31;20187;-76
2022/07/20 06:25:26;;;;;;;4.75;1.40;;;;;;;36.77;19.02;98610.34;4503636;31;20089;-78
2022/07/20 06:27:53;;;;;;;3.65;1.50;;;;;;;36.32;18.97;98615.03;4503440;31;20099;-76
2022/07/20 06:30:20;;;;;;;4.95;1.30;;;;;;;36.32;19.72;98609.66;4502369;31;20490;-76
2022/07/20 06:32:47;;;;;;;5.47;1.40;;;;;;;36.13;19.44;98607.91;4503738;31;20479;-75
2022/07/20 06:35:14;;;;;;;6.60;1.80;;;;;;;36.20;19.13;98614.06;4489069;31;20124;-75
2022/07/20 06:37:41;;;;;;;3.72;1.58;;;;;;;35.86;18.89;98604.53;4503750;31;20275;-75
2022/07/20 06:40:09;;;;;;;4.35;1.40;;;;;;;35.80;19.66;98608.06;4487829;31;20608;-78
2022/07/20 06:42:36;;;;;;;4.40;1.30;;;;;;;35.63;19.36;98607.75;4502134;31;20096;-77
2022/07/20 06:45:04;;;;;;;5.30;1.37;;;;;;;35.91;19.35;98597.50;4503162;31;20143;-76
2022/07/20 06:47:31;;;;;;;2.78;1.30;;;;;;;35.79;18.93;98598.37;4503512;31;20339;-79
2022/07/20 06:49:58;;;;;;;6.35;1.60;;;;;;;35.82;19.14;98606.81;4503239;31;20151;-77
2022/07/20 06:52:30;;;;;;;8.02;1.40;;;;;;;35.59;19.71;98603.81;4503742;31;20209;-83
2022/07/20 06:54:57;;;;;;;7.68;1.62;;;;;;;35.28;18.70;98602.66;4503411;31;20169;-84
2022/07/20 06:57:24;;;;;;;4.60;1.20;;;;;;;35.55;19.00;98602.59;4503341;31;20112;-81
2022/07/20 06:59:51;;;;;;;9.25;1.45;;;;;;;35.60;18.72;98608.16;4504169;31;20099;-81
2022/07/20 07:02:18;;;;;;;4.32;1.40;;;;;;;35.57;18.98;98598.66;4503748;31;20102;-79
2022/07/20 07:04:45;;;;;;;1.87;1.30;;;;;;;35.55;18.95;98606.09;4501902;31;20124;-79
2022/07/20 07:07:12;;;;;;;3.50;1.30;;;;;;;35.93;18.38;98605.34;4503446;31;20163;-79
2022/07/20 07:09:39;;;;;;;5.65;1.48;;;;;;;36.01;18.58;98609.62;4503241;31;20131;-80
2022/07/20 07:12:08;;;;;;;2.10;1.20;;;;;;;36.15;18.73;98612.03;4502490;31;20461;-79
2022/07/20 07:14:36;;;;;;;3.78;1.40;;;;;;;36.15;18.20;98608.50;4503316;31;20148;-79
2022/07/20 07:17:03;;;;;;;4.62;1.30;;;;;;;36.33;18.34;98613.97;4503197;31;20103;-80
2022/07/20 07:19:30;;;;;;;2.40;1.20;;;;;;;36.22;18.42;98609.31;4503393;31;20155;-80
2022/07/20 07:21:57;;;;;;;4.35;1.42;;;;;;;36.56;18.27;98618.81;4503315;31;20422;-80
2022/07/20 07:24:24;;;;;;;3.40;1.10;;;;;;;36.71;17.73;98607.75;4502792;31;20473;-80
2022/07/20 07:26:51;;;;;;;3.60;1.40;;;;;;;36.56;17.31;98613.44;4503193;31;20652;-80
2022/07/20 07:29:21;;;;;;;4.85;1.37;;;;;;;36.55;17.33;98619.03;4503458;31;20076;-80
2022/07/20 07:31:48;;;;;;;6.70;1.30;;;;;;;36.99;17.30;98613.50;4502878;31;20088;-80
2022/07/20 07:34:15;;;;;;;5.12;1.50;;;;;;;37.18;16.96;98608.97;4503154;31;20113;-81
2022/07/20 07:36:42;;;;;;;10.18;1.80;;;;;;;37.46;17.19;98613.06;4503378;31;20148;-79
2022/07/20 07:39:11;;;;;;;8.93;1.70;;;;;;;36.50;17.98;98609.75;4502766;31;20087;-79
2022/07/20 07:41:39;;;;;;;5.37;1.40;;;;;;;37.45;17.59;98609.53;4503375;31;20365;-79
2022/07/20 07:44:05;;;;;;;6.35;1.50;;;;;;;37.14;17.35;98605.09;4503172;31;20143;-80
2022/07/20 07:46:33;;;;;;;5.80;1.30;;;;;;;37.43;17.00;98606.22;4502545;31;20143;-80
2022/07/20 07:49:00;;;;;;;3.55;1.50;;;;;;;37.60;16.61;98609.97;4502418;31;20139;-79
2022/07/20 07:51:27;;;;;;;4.75;1.50;;;;;;;37.67;16.54;98607.22;4503121;31;20482;-79
2022/07/20 07:53:53;;;;;;;7.80;1.85;;;;;;;37.15;16.88;98604.03;4502650;31;20156;-79
2022/07/20 07:56:20;;;;;;;3.58;1.40;;;;;;;36.90;16.46;98592.47;4503016;31;20135;-79
2022/07/20 07:58:47;;;;;;;6.15;2.10;;;;;;;37.32;16.87;98597.03;4502732;31;20147;-79
2022/07/20 08:01:34;;;;;;;5.35;1.42;;;;;;;37.15;16.43;98600.53;4502942;31;20117;-78
2022/07/20 08:04:03;;;;;;;4.47;1.23;;;;;;;37.45;16.65;98608.72;4502882;31;20088;-78
2022/07/20 08:06:30;;;;;;;2.17;1.20;;;;;;;37.54;16.58;98610.88;4502780;31;20351;-78
2022/07/20 08:08:57;;;;;;;3.67;1.45;;;;;;;37.32;16.60;98599.72;4502999;31;20143;-78
2022/07/20 08:11:28;;;;;;;4.03;1.48;;;;;;;37.41;16.17;98596.75;4503125;31;20079;-78
2022/07/20 08:13:55;;;;;;;3.97;1.40;;;;;;;37.87;15.74;98598.91;4502489;31;20377;-78
2022/07/20 08:16:23;;;;;;;5.57;1.40;;;;;;;38.20;15.98;98601.94;4503176;31;20091;-79
2022/07/20 08:18:50;;;;;;;2.33;1.33;;;;;;;37.72;16.80;98591.19;4502972;31;20084;-79
2022/07/20 08:21:18;;;;;;;5.10;1.70;;;;;;;38.05;15.88;98596.16;4502591;31;20167;-79
2022/07/20 08:23:44;;;;;;;2.90;1.40;;;;;;;38.02;15.89;98598.50;4502671;31;20103;-79
2022/07/20 08:26:12;;;;;;;6.90;1.50;;;;;;;37.75;16.33;98593.47;4502979;31;20158;-78
2022/07/20 08:28:40;;;;;;;4.00;1.60;;;;;;;37.63;16.15;98595.22;4502275;31;20139;-78
2022/07/20 08:31:07;;;;;;;5.40;1.48;;;;;;;37.64;16.34;98596.88;4502987;31;20171;-79
2022/07/20 08:33:34;;;;;;;5.40;1.58;;;;;;;37.68;16.49;98600.78;4502672;31;20096;-78
2022/07/20 08:36:01;;;;;;;4.35;1.50;;;;;;;37.58;16.32;98587.84;4502619;31;20096;-78
2022/07/20 08:38:28;;;;;;;2.58;1.40;;;;;;;35.72;18.33;98587.66;4502796;31;20091;-78
2022/07/20 08:40:56;;;;;;;2.62;1.42;;;;;;;36.74;17.30;98585.78;4502520;31;20481;-78
2022/07/20 08:43:24;;;;;;;3.45;1.60;;;;;;;37.54;16.47;98588.53;4502768;31;20172;-78
2022/07/20 08:45:51;;;;;;;6.68;1.50;;;;;;;36.93;16.70;98576.75;4502295;31;20184;-78
2022/07/20 08:48:18;;;;;;;4.30;1.40;;;;;;;36.17;17.62;98583.09;4501924;31;20570;-78
2022/07/20 08:50:47;;;;;;;5.22;1.33;;;;;;;36.40;17.44;98587.94;4502588;31;20084;-78
2022/07/20 08:53:14;;;;;;;4.03;1.60;;;;;;;37.34;16.71;98583.37;4502501;31;20151;-79
2022/07/20 08:55:41;;;;;;;4.05;1.45;;;;;;;38.04;16.37;98588.31;4501997;31;20083;-78
2022/07/20 08:58:10;;;;;;;4.28;1.70;;;;;;;38.82;15.77;98592.75;4502356;31;20159;-78
2022/07/20 09:00:37;;;;;;;5.93;1.52;;;;;;;38.17;15.64;98586.22;4502724;31;20160;-78
2022/07/20 09:03:06;;;;;;;6.45;1.52;;;;;;;38.60;15.59;98589.72;4504153;31;20153;-78
2022/07/20 09:05:35;;;;;;;5.15;1.83;;;;;;;38.41;15.87;98592.53;4504319;31;20192;-78
2022/07/20 09:08:04;;;;;;;3.25;1.33;;;;;;;38.61;15.77;98580.63;4504381;31;20132;-78
2022/07/20 09:10:34;;;;;;;4.82;1.55;;;;;;;38.99;15.75;98588.25;4504001;31;20159;-77
2022/07/20 09:13:03;;;;;;;20.08;2.83;;;;;;;37.61;16.37;98590.06;4504400;31;20104;-78
2022/07/20 09:15:37;;;;;;;9.57;1.58;;;;;;;36.83;17.98;98584.50;4504200;31;20106;-79
2022/07/20 09:18:17;;;;;;;6.90;1.75;;;;;;;38.04;16.42;98583.72;4503961;31;20481;-77
2022/07/20 09:20:48;;;;;;;4.35;1.67;;;;;;;38.32;15.97;98585.84;4504355;31;20076;-77
2022/07/20 09:23:18;;;;;;;9.48;1.65;;;;;;;38.50;15.79;98576.84;4503869;31;20106;-78
2022/07/20 09:26:06;;;;;;;9.05;1.70;;;;;;;38.63;15.73;98584.72;4502761;31;20111;-78
2022/07/20 09:28:41;;;;;;;4.30;1.60;;;;;;;38.59;16.14;98572.75;4504207;31;20105;-78
2022/07/20 09:31:30;;;;;;;4.20;1.73;;;;;;;38.39;15.69;98574.94;4503775;31;20102;-78
2022/07/20 09:34:15;;;;;;;9.27;1.80;;;;;;;37.03;17.31;98571.69;4504202;31;20092;-77
2022/07/20 09:36:44;;;;;;;3.80;1.65;;;;;;;37.79;15.99;98573.13;4504230;31;20163;-78
2022/07/20 09:39:15;;;;;;;11.45;1.92;;;;;;;38.01;15.82;98578.81;4504150;31;20167;-78
2022/07/20 09:41:44;;;;;;;3.60;1.83;;;;;;;38.60;15.48;98570.88;4504148;31;20075;-78
2022/07/20 09:44:23;;;;;;;8.27;1.90;;;;;;;38.58;15.06;98570.28;4503606;31;20413;-78
2022/07/20 09:46:50;;;;;;;4.22;1.65;;;;;;;39.03;14.53;98576.78;4504322;31;20261;-78
2022/07/20 09:49:18;;;;;;;16.52;2.45;;;;;;;38.22;15.83;98584.75;4504113;31;20088;-78
2022/07/20 09:51:49;;;;;;;6.82;1.58;;;;;;;38.29;15.82;98569.31;4503838;31;20147;-77
2022/07/20 09:54:18;;;;;;;40.65;4.28;;;;;;;38.24;15.48;98574.56;4503863;31;20201;-78
2022/07/20 09:56:47;;;;;;;6.43;1.87;;;;;;;37.48;16.64;98566.03;4503895;31;20104;-77
2022/07/20 09:59:15;;;;;;;4.78;1.70;;;;;;;38.23;15.15;98571.06;4503434;31;20113;-78
2022/07/20 10:01:47;;;;;;;2.92;1.77;;;;;;;38.12;15.23;98569.94;4504055;31;20084;-78
2022/07/20 10:04:15;;;;;;;5.45;1.83;;;;;;;38.12;15.33;98575.31;4502800;31;20123;-78
2022/07/20 10:06:45;;;;;;;4.43;1.58;;;;;;;37.43;15.92;98571.25;4503497;31;20168;-78
2022/07/20 10:09:14;;;;;;;5.82;1.80;;;;;;;36.79;16.95;98572.50;4503879;31;20832;-79
2022/07/20 10:11:42;;;;;;;7.90;1.60;;;;;;;37.63;16.06;98571.81;4502468;31;20132;-79
2022/07/20 10:14:09;;;;;;;4.97;1.77;;;;;;;37.74;15.90;98572.91;4503391;31;20093;-79
2022/07/20 10:16:39;;;;;;;5.95;2.10;;;;;;;38.14;15.34;98570.53;4502863;31;20139;-79
2022/07/20 10:19:07;;;;;;;5.03;1.90;;;;;;;38.78;14.96;98574.31;4502368;31;20103;-79
2022/07/20 10:21:43;;;;;;;4.15;2.00;;;;;;;38.78;14.77;98563.53;4503924;31;20143;-79
2022/07/20 10:24:13;;;;;;;4.35;1.77;;;;;;;38.20;14.90;98571.50;4503553;31;20128;-79
2022/07/20 10:26:40;;;;;;;6.10;1.75;;;;;;;37.77;15.03;98560.94;4503508;31;20099;-79
2022/07/20 10:29:07;;;;;;;6.72;1.92;;;;;;;37.67;15.40;98560.63;4503807;31;20163;-78
2022/07/20 10:31:51;;;;;;;3.55;1.70;;;;;;;37.46;15.49;98562.75;4503792;31;20079;-78
2022/07/20 10:34:37;;;;;;;4.12;1.70;;;;;;;37.39;15.21;98562.00;4503206;31;20493;-78
2022/07/20 10:37:24;;;;;;;;;;;;;;;37.35;15.65;98561.63;4504209;31;20155;-78
2022/07/20 10:40:03;;;;;;;4.15;1.67;;;;;;;37.94;15.00;98567.28;4503813;31;20517;-79
2022/07/20 10:42:33;;;;;;;6.30;1.85;;;;;;;38.18;15.19;98562.81;4503856;31;20139;-80
2022/07/20 10:45:20;;;;;;;7.93;1.83;;;;;;;38.36;14.98;98557.34;4503607;31;20175;-80
2022/07/20 10:48:17;;;;;;;2.75;1.70;;;;;;;37.80;15.30;98555.91;4503218;31;20092;-80
2022/07/20 10:50:49;;;;;;;7.43;1.90;;;;;;;37.64;15.54;98554.66;4500982;31;20087;-78
2022/07/20 10:53:16;;;;;;;4.80;2.05;;;;;;;37.94;15.42;98559.22;4503686;31;20098;-78
2022/07/20 10:56:02;;;;;;;3.58;1.80;;;;;;;37.70;15.36;98557.47;4503253;31;20140;-78
2022/07/20 10:58:31;;;;;;;5.30;1.95;;;;;;;37.71;15.22;98548.34;4503645;31;20140;-78
2022/07/20 11:01:06;;;;;;;4.25;2.03;;;;;;;38.03;14.91;98544.38;4502161;31;20092;-78
2022/07/20 11:03:44;;;;;;;4.97;1.65;;;;;;;37.97;15.70;98547.19;4503360;31;20111;-78
2022/07/20 11:06:23;;;;;;;4.72;1.80;;;;;;;37.87;14.77;98539.66;4503616;31;20426;-78
2022/07/20 11:08:55;;;;;;;11.15;2.40;;;;;;;37.90;15.53;98541.88;4503195;31;20339;-78
2022/07/20 11:11:30;;;;;;;4.37;2.00;;;;;;;37.87;16.06;98536.97;4503634;31;20136;-78
2022/07/20 11:13:57;;;;;;;4.10;1.92;;;;;;;38.26;14.98;98530.16;4503406;31;20084;-77
2022/07/20 11:16:26;;;;;;;6.22;1.98;;;;;;;38.47;15.31;98526.09;4503202;31;20152;-77
2022/07/20 11:18:54;;;;;;;4.30;1.80;;;;;;;37.95;15.96;98530.41;4503267;31;20484;-78
2022/07/20 11:21:40;;;;;;;4.00;1.73;;;;;;;38.51;15.30;98516.50;4503601;31;20084;-78
2022/07/20 11:24:23;;;;;;;3.83;1.67;;;;;;;38.07;15.76;98515.09;4501955;31;20075;-79
2022/07/20 11:26:50;;;;;;;8.40;1.95;;;;;;;37.89;16.01;98513.31;4503475;31;20092;-77
2022/07/20 11:29:23;;;;;;;5.97;1.87;;;;;;;37.36;15.99;98516.69;4503349;31;20100;-78
2022/07/20 11:31:50;;;;;;;5.20;1.80;;;;;;;37.06;16.67;98516.59;4503315;31;20157;-78
2022/07/20 11:34:17;;;;;;;4.72;1.70;;;;;;;37.14;16.24;98512.81;4503171;31;20186;-78
2022/07/20 11:36:44;;;;;;;7.15;1.65;;;;;;;36.45;17.66;98514.72;4503064;31;20088;-78
2022/07/20 11:39:12;;;;;;;4.32;1.73;;;;;;;37.18;16.52;98514.00;4502179;31;20121;-78
2022/07/20 11:41:43;;;;;;;4.43;1.67;;;;;;;37.47;16.00;98507.03;4503401;31;20133;-77
2022/07/20 11:44:18;;;;;;;4.43;1.75;;;;;;;37.86;15.87;98509.22;4501760;31;20122;-77